Time;durP1;ratioP1;P1;durP2;ratioP2;P2;SDS_P1;SDS_P2;PMS_P1;PMS_P2;Temp;Humidity;BMP_temperature;BMP_pressure;BME280_temperature;BME280_humidity;BME280_pressure;Samples;Min_cycle;Max_cycle;Signal;HPM_P1;HPM_P2
2021/01/06 00:01:51;;;;;;;;;;;;;;;3.19;85.29;102714.50;4943468;29;20381;-93
2021/01/06 00:07:04;;;;;;;;;;;;;;;3.19;85.28;102713.66;5262622;23;19945;31
2021/01/06 00:13:32;;;;;;;;;;;;;;;3.07;85.59;102709.66;4933996;29;19993;-94
2021/01/06 00:16:09;;;;;;;;;;;;;;;3.06;85.64;102709.72;4904115;29;20003;-92
2021/01/06 00:18:35;;;;;;;;;;;;;;;3.00;85.97;102709.00;4919037;29;20297;-93
2021/01/06 00:21:11;;;;;;;;;;;;;;;2.97;85.93;102700.44;4969873;23;19922;-93
2021/01/06 00:23:40;;;;;;;;;;;;;;;2.94;86.00;102706.56;4974591;28;19914;-95
2021/01/06 00:38:00;;;;;;;;;;;;;;;2.81;86.36;102691.38;5019756;23;20012;-94
2021/01/06 00:43:00;;;;;;;;;;;;;;;2.80;86.63;102690.53;4965481;29;19923;-94
2021/01/06 00:45:27;;;;;;;;;;;;;;;2.80;86.84;102689.69;4953019;29;19914;-95
2021/01/06 00:48:16;;;;;;;;;;;;;;;2.81;86.78;102688.78;4951275;29;19914;-95
2021/01/06 01:06:42;;;;;;;;;;;;;;;2.80;87.02;102690.53;5112240;23;19930;-93
2021/01/06 01:09:09;;;;;;;;;;;;;;;2.80;86.88;102679.31;4969607;29;19923;-94
2021/01/06 01:11:40;;;;;;;;;;;;;;;2.81;87.00;102683.59;5000530;23;19922;-93
2021/01/06 01:14:13;;;;;;;;;;;;;;;2.80;87.23;102674.97;4970074;28;19926;-93
2021/01/06 01:19:09;;;;;;;;;;;;;;;2.81;87.35;102670.66;5026086;23;20297;-94
2021/01/06 01:21:35;;;;;;;;;;;;;;;2.80;87.16;102659.44;5052675;23;19931;-94
2021/01/06 01:24:07;;;;;;;;;;;;;;;2.79;87.47;102664.66;4966323;29;19929;-93
2021/01/06 01:40:01;;;;;;;;;;;;;;;2.79;87.54;102659.47;5987505;23;19909;-92
2021/01/06 02:10:41;;;;;;;;;;;;;;;2.76;88.34;102642.28;4983003;28;19929;-92
2021/01/06 02:18:28;;;;;;;;;;;;;;;2.76;88.54;102642.28;5500719;23;19926;-91
2021/01/06 02:21:26;;;;;;;;;;;;;;;2.77;88.38;102641.38;4960674;23;20341;-94
2021/01/06 02:43:34;;;;;;;;;;;;;;;2.74;88.65;102643.22;4952380;29;19926;-91
2021/01/06 02:55:14;;;;;;;;;;;;;;;2.66;88.90;102638.22;5435169;23;19931;31
2021/01/06 03:01:11;;;;;;;;;;;;;;;2.61;88.84;102634.94;4975201;23;20022;-90
2021/01/06 03:03:40;;;;;;;;;;;;;;;2.59;88.96;102632.38;4976762;23;20352;-90
2021/01/06 03:06:25;;;;;;;;;;;;;;;2.58;89.07;102624.66;4968401;28;20377;-92
2021/01/06 03:08:51;;;;;;;;;;;;;;;2.56;89.21;102622.09;4969667;28;20374;-95
2021/01/06 03:11:18;;;;;;;;;;;;;;;2.55;89.35;102628.19;4978583;23;19929;-95
2021/01/06 03:14:04;;;;;;;;;;;;;;;2.57;89.21;102625.53;4974607;28;19914;-95
2021/01/06 03:16:30;;;;;;;;;;;;;;;2.57;89.27;102630.72;4971063;28;20313;-90
2021/01/06 03:22:08;;;;;;;;;;;;;;;2.56;89.54;102619.53;5194978;23;19929;-93
2021/01/06 03:27:49;;;;;;;;;;;;;;;2.57;89.37;102621.22;4908104;29;20019;-92
2021/01/06 03:30:17;;;;;;;;;;;;;;;2.56;89.58;102626.44;4968531;28;20289;-94
2021/01/06 03:32:45;;;;;;;;;;;;;;;2.54;89.63;102613.53;4969868;28;20329;-92
2021/01/06 03:35:18;;;;;;;;;;;;;;;2.54;89.70;102617.88;4983366;23;20271;-93
2021/01/06 03:38:11;;;;;;;;;;;;;;;2.53;89.90;102611.84;4967637;29;19919;-92
2021/01/06 03:40:38;;;;;;;;;;;;;;;2.51;90.04;102611.00;4965231;29;20350;-92
2021/01/06 03:46:18;;;;;;;;;;;;;;;2.52;90.07;102604.06;5047279;23;19933;-92
2021/01/06 03:48:59;;;;;;;;;;;;;;;2.53;90.13;102600.63;4972070;28;19942;-92
2021/01/06 03:51:49;;;;;;;;;;;;;;;2.53;90.28;102595.44;4968180;28;20373;-93
2021/01/06 03:54:19;;;;;;;;;;;;;;;2.54;90.33;102608.34;4981058;28;19965;-91
2021/01/06 03:59:27;;;;;;;;;;;;;;;2.54;90.44;102610.09;4993810;23;19929;-91
2021/01/06 04:02:08;;;;;;;;;;;;;;;2.52;90.46;102601.47;4994550;23;19981;-93
2021/01/06 04:07:00;;;;;;;;;;;;;;;2.50;90.71;102603.28;5018943;23;19922;-89
2021/01/06 04:12:36;;;;;;;;;;;;;;;2.40;91.33;102595.78;4914597;28;19963;-92
2021/01/06 04:15:24;;;;;;;;;;;;;;;2.38;91.51;102589.78;4969940;28;19914;-91
2021/01/06 04:17:54;;;;;;;;;;;;;;;2.35;91.51;102584.66;4983753;28;19922;-91
2021/01/06 04:20:38;;;;;;;;;;;;;;;2.32;91.58;102579.56;4969557;28;19915;-92
2021/01/06 04:55:57;;;;;;;;;;;;;;;2.20;93.14;102566.94;4989876;28;19937;-88
2021/01/06 04:58:47;;;;;;;;;;;;;;;2.17;93.23;102553.25;4992745;28;19978;-89
2021/01/06 05:01:19;;;;;;;;;;;;;;;2.15;93.22;102563.66;4981078;28;20261;-91
2021/01/06 05:04:05;;;;;;;;;;;;;;;2.14;93.31;102555.94;4969396;28;20246;-90
2021/01/06 05:06:37;;;;;;;;;;;;;;;2.14;93.38;102556.78;4967963;28;19914;-91
2021/01/06 05:09:26;;;;;;;;;;;;;;;2.10;93.62;102568.09;4970031;28;20326;-91
2021/01/06 05:12:02;;;;;;;;;;;;;;;2.05;93.92;102560.47;4983318;28;20318;-92
2021/01/06 05:14:33;;;;;;;;;;;;;;;2.05;93.88;102570.81;4966906;28;20329;-91
2021/01/06 05:17:02;;;;;;;;;;;;;;;2.00;94.24;102562.31;4967462;28;19914;-89
2021/01/06 05:19:39;;;;;;;;;;;;;;;1.98;94.36;102563.25;4970441;28;19925;-90
2021/01/06 05:22:05;;;;;;;;;;;;;;;1.95;94.37;102556.41;4968832;28;19914;-92
2021/01/06 05:24:41;;;;;;;;;;;;;;;1.93;94.51;102562.53;4968598;28;20549;-91
2021/01/06 05:27:13;;;;;;;;;;;;;;;1.90;94.59;102554.84;4967356;28;20417;-90
2021/01/06 05:29:44;;;;;;;;;;;;;;;1.87;94.77;102563.50;4967262;28;20362;-92
2021/01/06 05:32:18;;;;;;;;;;;;;;;1.88;94.67;102559.19;4984538;28;20272;-92
2021/01/06 05:34:45;;;;;;;;;;;;;;;1.87;94.62;102553.16;4970687;28;19906;-91
2021/01/06 05:37:14;;;;;;;;;;;;;;;1.86;94.86;102554.03;4977356;28;20251;-91
2021/01/06 05:42:53;;;;;;;;;;;;;;;1.83;95.26;102553.28;4985834;28;19970;-90
2021/01/06 05:45:21;;;;;;;;;;;;;;;1.83;95.18;102553.28;4978604;23;20301;-90
2021/01/06 05:48:13;;;;;;;;;;;;;;;1.82;95.40;102551.59;4968042;28;19953;-89
2021/01/06 05:50:42;;;;;;;;;;;;;;;1.82;95.30;102551.59;4967658;28;20378;-91
2021/01/06 05:53:25;;;;;;;;;;;;;;;1.82;95.30;102554.16;4970489;28;20336;-93
2021/01/06 05:56:00;;;;;;;;;;;;;;;1.82;95.42;102554.16;4968413;28;19916;-90
2021/01/06 05:58:52;;;;;;;;;;;;;;;1.83;95.65;102558.47;4968130;28;19914;-91
2021/01/06 06:04:46;;;;;;;;;;;;;;;1.87;95.59;102552.31;4986106;28;19921;-90
2021/01/06 06:07:23;;;;;;;;;;;;;;;1.85;95.69;102551.50;4891689;29;20319;-91
2021/01/06 06:10:10;;;;;;;;;;;;;;;1.87;95.80;102554.91;4965757;28;20349;-89
2021/01/06 06:12:57;;;;;;;;;;;;;;;1.86;95.76;102556.63;4966626;28;20380;-88
2021/01/06 06:15:45;;;;;;;;;;;;;;;1.88;95.75;102552.25;4969379;28;20416;-88
2021/01/06 06:18:34;;;;;;;;;;;;;;;1.90;95.95;102572.97;4990853;28;19942;-91
2021/01/06 06:21:12;;;;;;;;;;;;;;;1.90;96.16;102566.03;4980355;28;19925;-89
2021/01/06 06:23:58;;;;;;;;;;;;;;;1.92;96.17;102563.41;4979936;28;19902;-92
2021/01/06 06:26:28;;;;;;;;;;;;;;;1.91;96.28;102554.81;4987659;28;20332;-90
2021/01/06 06:29:19;;;;;;;;;;;;;;;1.91;96.30;102569.47;4973740;28;20311;-89
2021/01/06 06:32:03;;;;;;;;;;;;;;;1.89;96.19;102566.06;4995234;23;20295;-91
2021/01/06 06:34:38;;;;;;;;;;;;;;;1.87;96.31;102555.75;4964625;29;20305;-91
2021/01/06 06:37:15;;;;;;;;;;;;;;;1.86;96.42;102564.41;4967983;28;20358;-90
2021/01/06 06:40:16;;;;;;;;;;;;;;;1.87;96.58;102554.91;4969663;29;20355;-91
2021/01/06 06:49:09;;;;;;;;;;;;;;;1.94;96.45;102556.44;4978780;28;19929;-90
2021/01/06 06:51:53;;;;;;;;;;;;;;;1.93;96.54;102557.34;4954762;29;19925;-91
2021/01/06 07:00:29;;;;;;;;;;;;;;;1.99;96.52;102554.59;4874283;29;19923;-90
2021/01/06 07:03:01;;;;;;;;;;;;;;;2.00;96.54;102553.69;4859416;29;19921;-91
2021/01/06 07:05:36;;;;;;;;;;;;;;;2.02;96.65;102552.75;4858999;29;20436;-90
2021/01/06 07:14:27;;;;;;;;;;;;;;;2.08;96.55;102564.72;4970063;29;19982;-90
2021/01/06 07:16:59;;;;;;;;;;;;;;;2.09;96.69;102556.06;4951855;29;20366;-91
2021/01/06 07:19:35;;;;;;;;;;;;;;;2.10;96.67;102560.34;4966545;29;20369;-91
2021/01/06 07:22:33;;;;;;;;;;;;;;;2.12;96.75;102555.13;4988077;23;19993;-92
2021/01/06 07:28:14;;;;;;;;;;;;;;;2.17;96.92;102554.09;5158968;23;20262;-91
2021/01/06 07:31:01;;;;;;;;;;;;;;;2.21;96.83;102554.84;5058310;23;19926;-93
2021/01/06 07:33:50;;;;;;;;;;;;;;;2.21;96.72;102547.97;4952645;28;20309;-90
2021/01/06 07:47:26;;;;;;;;;;;;;;;2.32;96.79;102553.69;5001488;28;19928;-92
2021/01/06 07:50:14;;;;;;;;;;;;;;;2.35;96.84;102552.75;4952002;28;20336;-89
2021/01/06 07:52:59;;;;;;;;;;;;;;;2.36;96.80;102549.25;4932305;28;19918;-92
2021/01/06 07:58:46;;;;;;;;;;;;;;;2.39;96.59;102550.06;4971171;29;19924;-91
2021/01/06 08:01:34;;;;;;;;;;;;;;;2.38;96.57;102542.31;4959749;29;19949;-91
2021/01/06 08:04:07;;;;;;;;;;;;;;;2.37;96.60;102548.41;4951431;29;20449;-91
2021/01/06 08:06:47;;;;;;;;;;;;;;;2.34;96.54;102553.63;4950396;29;19975;-94
2021/01/06 08:09:35;;;;;;;;;;;;;;;2.31;96.40;102548.53;4952017;29;20329;-91
2021/01/06 08:12:13;;;;;;;;;;;;;;;2.31;96.44;102552.00;4949931;29;19945;-90
2021/01/06 08:14:41;;;;;;;;;;;;;;;2.31;96.41;102546.81;4952496;29;20281;-91
2021/01/06 08:59:55;;;;;;;;;;;;;;;2.54;95.52;102586.78;4908193;29;19957;-90
2021/01/06 09:02:34;;;;;;;;;;;;;;;2.52;95.36;102589.38;4908810;29;20370;-92
2021/01/06 09:05:02;;;;;;;;;;;;;;;2.50;95.31;102588.59;4891394;29;20283;-92
2021/01/06 09:41:18;;;;;;;;;;;;;;;2.60;95.13;102582.25;5363620;23;19922;-92
2021/01/06 09:43:57;;;;;;;;;;;;;;;2.62;95.13;102575.28;4964545;23;19922;-92
2021/01/06 09:46:35;;;;;;;;;;;;;;;2.63;95.04;102573.56;4970934;29;19918;-92
2021/01/06 09:55:18;;;;;;;;;;;;;;;2.81;94.90;102569.56;4988589;28;19924;-96
2021/01/06 09:57:45;;;;;;;;;;;;;;;2.84;94.92;102570.38;4986135;28;20258;-94
2021/01/06 10:00:47;;;;;;;;;;;;;;;2.88;94.97;102574.56;4988620;28;20413;-96
2021/01/06 10:03:17;;;;;;;;;;;;;;;2.89;94.76;102578.00;4893697;29;20374;-95
2021/01/06 10:05:47;;;;;;;;;;;;;;;2.92;94.74;102575.31;4972745;28;19981;-96
2021/01/06 10:08:15;;;;;;;;;;;;;;;2.95;94.71;102573.47;4988369;28;20030;-94
2021/01/06 10:10:43;;;;;;;;;;;;;;;2.96;94.70;102569.97;4983779;28;19937;-96
2021/01/06 10:13:15;;;;;;;;;;;;;;;2.99;94.67;102569.03;4984868;28;19920;-96
2021/01/06 10:15:56;;;;;;;;;;;;;;;3.00;94.58;102565.56;4991695;28;20251;-94
2021/01/06 10:18:37;;;;;;;;;;;;;;;3.03;94.58;102567.22;4987725;28;19937;-95
2021/01/06 10:21:15;;;;;;;;;;;;;;;3.04;94.71;102566.31;4987681;28;19914;-95
2021/01/06 10:23:49;;;;;;;;;;;;;;;2.99;94.57;102566.44;4978293;23;20255;-95
2021/01/06 10:26:34;;;;;;;;;;;;;;;3.00;94.49;102566.41;4971960;28;19914;-96
2021/01/06 10:29:10;;;;;;;;;;;;;;;3.04;94.38;102567.16;4984111;28;19918;-96
2021/01/06 10:43:32;;;;;;;;;;;;;;;3.12;94.33;102570.38;4922911;29;19918;-95
2021/01/06 10:45:59;;;;;;;;;;;;;;;3.07;94.04;102561.03;4910840;29;19920;-95
2021/01/06 10:48:43;;;;;;;;;;;;;;;3.07;93.87;102550.66;4914132;29;20280;-95
2021/01/06 10:51:09;;;;;;;;;;;;;;;3.12;94.08;102553.94;4909640;29;20260;-95
2021/01/06 10:53:40;;;;;;;;;;;;;;;3.09;93.88;102551.47;4907350;29;20394;-96
2021/01/06 10:56:08;;;;;;;;;;;;;;;3.12;93.78;102546.19;4905544;29;20197;-94
2021/01/06 10:58:59;;;;;;;;;;;;;;;3.13;93.53;102546.13;4906011;29;20390;-95
2021/01/06 11:01:25;;;;;;;;;;;;;;;3.12;93.51;102539.25;4905498;29;19985;-95
2021/01/06 11:04:09;;;;;;;;;;;;;;;3.14;93.36;102537.44;4905278;29;19923;-94
2021/01/06 11:06:47;;;;;;;;;;;;;;;3.14;93.32;102541.78;4904679;29;20325;-94
2021/01/06 11:09:32;;;;;;;;;;;;;;;3.17;93.25;102528.75;4904965;29;20349;-93
2021/01/06 11:12:00;;;;;;;;;;;;;;;3.20;93.09;102523.47;4906513;29;20391;-95
2021/01/06 11:14:26;;;;;;;;;;;;;;;3.26;93.12;102524.09;4908145;29;20279;-93
2021/01/06 11:16:57;;;;;;;;;;;;;;;3.28;93.06;102521.47;4908019;29;19980;-94
2021/01/06 11:19:42;;;;;;;;;;;;;;;3.31;93.20;102513.56;4903216;29;20283;-94
2021/01/06 11:22:28;;;;;;;;;;;;;;;3.37;93.13;102509.97;4904272;29;20324;-95
2021/01/06 11:24:54;;;;;;;;;;;;;;;3.38;93.06;102512.50;4909710;29;20280;-94
2021/01/06 11:27:39;;;;;;;;;;;;;;;3.41;93.14;102506.34;4914954;29;20394;-95
2021/01/06 11:30:11;;;;;;;;;;;;;;;3.44;93.00;102506.25;4905558;29;19974;-94
2021/01/06 11:32:38;;;;;;;;;;;;;;;3.39;93.06;102503.81;4889186;29;20383;-94
2021/01/06 11:35:14;;;;;;;;;;;;;;;3.36;92.68;102503.94;4917982;29;19926;-94
2021/01/06 11:37:42;;;;;;;;;;;;;;;3.38;92.97;102502.13;4917503;29;20435;-94
2021/01/06 11:40:34;;;;;;;;;;;;;;;3.41;92.79;102491.63;4907843;29;19962;-95
2021/01/06 11:43:03;;;;;;;;;;;;;;;3.40;92.91;102487.34;4864971;29;20272;-94
2021/01/06 11:45:35;;;;;;;;;;;;;;;3.42;92.90;102482.97;4873663;29;20272;-94
2021/01/06 11:48:06;;;;;;;;;;;;;;;3.45;92.83;102480.25;4887398;29;19916;-94
2021/01/06 11:50:45;;;;;;;;;;;;;;;3.51;92.73;102474.88;4887094;29;20424;-95
2021/01/06 11:53:29;;;;;;;;;;;;;;;3.51;92.83;102477.47;4883882;29;19915;-94
2021/01/06 11:59:16;;;;;;;;;;;;;;;3.61;92.83;102460.69;4893816;29;19927;-94
2021/01/06 12:02:00;;;;;;;;;;;;;;;3.63;92.81;102454.59;4902626;29;19940;-91
2021/01/06 12:04:51;;;;;;;;;;;;;;;3.65;92.73;102455.41;4884759;29;20272;-93
2021/01/06 12:07:39;;;;;;;;;;;;;;;3.66;92.84;102446.72;4896256;29;19916;-90
2021/01/06 12:10:05;;;;;;;;;;;;;;;3.67;92.79;102433.69;4892441;29;20427;-93
2021/01/06 12:15:36;;;;;;;;;;;;;;;3.65;92.45;102432.91;5333631;23;19922;-92
2021/01/06 12:20:54;;;;;;;;;;;;;;;3.74;92.48;102429.13;4993543;23;19929;-90
2021/01/06 12:32:34;;;;;;;;;;;;;;;3.84;91.74;102417.50;3074833;23;20283;-90
2021/01/06 12:35:24;;;;;;;;;;;;;;;3.86;91.51;102408.78;4942595;23;20212;-91
2021/01/06 12:47:46;;;;;;;;;;;;;;;3.90;91.09;102383.53;4927727;29;19926;-92
2021/01/06 12:50:29;;;;;;;;;;;;;;;3.91;90.98;102388.66;4910701;29;20259;-93
2021/01/06 12:53:20;;;;;;;;;;;;;;;3.92;90.88;102389.50;4909053;29;19915;-93
2021/01/06 13:04:15;;;;;;;;;;;;;;;3.84;90.65;102386.38;4955102;29;19926;-94
2021/01/06 13:09:37;;;;;;;;;;;;;;;3.73;90.43;102378.13;5162865;23;20333;-94
2021/01/06 13:12:46;;;;;;;;;;;;;;;3.65;90.44;102378.41;4913208;29;19915;-92
2021/01/06 13:15:54;;;;;;;;;;;;;;;3.48;90.62;102371.22;4892853;29;19915;-93
2021/01/06 13:18:43;;;;;;;;;;;;;;;3.41;90.86;102385.28;4893209;29;20335;-92
2021/01/06 13:21:42;;;;;;;;;;;;;;;3.36;90.93;102371.66;4909625;29;19915;-92
2021/01/06 13:24:24;;;;;;;;;;;;;;;3.27;91.05;102377.13;4895956;29;19981;-92
2021/01/06 13:27:05;;;;;;;;;;;;;;;3.21;91.25;102379.94;4908564;29;19916;-93
2021/01/06 13:29:54;;;;;;;;;;;;;;;3.14;91.40;102374.09;4891552;29;19915;-95
2021/01/06 13:32:44;;;;;;;;;;;;;;;3.11;91.69;102378.56;4890373;29;20406;-93
2021/01/06 13:35:20;;;;;;;;;;;;;;;3.02;91.78;102387.50;4889700;29;19986;-93
2021/01/06 13:37:52;;;;;;;;;;;;;;;3.02;91.57;102384.06;4892609;29;20381;-94
2021/01/06 13:40:39;;;;;;;;;;;;;;;3.01;91.85;102378.03;4906589;29;19915;-95
2021/01/06 13:43:08;;;;;;;;;;;;;;;3.04;91.84;102371.88;4889524;29;20398;-92
2021/01/06 13:45:42;;;;;;;;;;;;;;;3.05;91.85;102361.47;4888028;29;20300;-92
2021/01/06 13:48:23;;;;;;;;;;;;;;;3.07;92.01;102369.19;4888969;29;19957;-92
2021/01/06 13:50:49;;;;;;;;;;;;;;;3.09;92.02;102359.59;4893505;29;20368;-94
2021/01/06 13:53:35;;;;;;;;;;;;;;;3.10;91.87;102353.53;4892056;29;20360;-95
2021/01/06 13:56:12;;;;;;;;;;;;;;;3.11;91.97;102353.47;4895102;29;19915;-92
2021/01/06 13:58:45;;;;;;;;;;;;;;;3.13;92.01;102356.00;4898908;29;19975;-93
2021/01/06 14:01:30;;;;;;;;;;;;;;;3.12;92.07;102351.72;4877299;29;20479;-91
2021/01/06 14:04:04;;;;;;;;;;;;;;;3.14;92.20;102347.31;4892749;29;20253;-92
2021/01/06 14:08:59;;;;;;;;;;;;;;;3.14;92.32;102340.41;5019915;23;19969;-95
2021/01/06 14:11:27;;;;;;;;;;;;;;;3.13;92.26;102346.47;4982604;28;19929;-95
2021/01/06 14:14:11;;;;;;;;;;;;;;;3.14;92.27;102331.78;4982558;28;19969;-94
2021/01/06 14:16:56;;;;;;;;;;;;;;;3.12;92.48;102339.59;4981588;28;20229;-95
2021/01/06 14:19:26;;;;;;;;;;;;;;;3.09;92.60;102331.94;4992495;28;19926;-96
2021/01/06 14:21:55;;;;;;;;;;;;;;;3.09;92.56;102328.50;4989419;28;19919;-93
2021/01/06 14:24:26;;;;;;;;;;;;;;;3.10;92.24;102335.38;4979013;28;19914;-96
2021/01/06 14:30:01;;;;;;;;;;;;;;;3.11;92.35;102332.72;4977982;23;19933;-95
2021/01/06 14:32:32;;;;;;;;;;;;;;;3.08;92.45;102322.47;4960576;29;19919;-93
2021/01/06 14:34:57;;;;;;;;;;;;;;;3.07;92.34;102319.94;4963065;23;20313;-92
2021/01/06 14:37:25;;;;;;;;;;;;;;;3.02;92.55;102319.25;4956517;29;19919;-92
2021/01/06 14:39:53;;;;;;;;;;;;;;;3.02;92.56;102324.44;4959821;29;19922;-94
2021/01/06 14:42:28;;;;;;;;;;;;;;;2.99;92.51;102333.13;4962159;28;19923;-89
2021/01/06 14:44:56;;;;;;;;;;;;;;;2.97;92.45;102333.19;4951585;29;19919;-92
2021/01/06 14:47:25;;;;;;;;;;;;;;;2.96;92.50;102328.06;4949449;29;20369;-91
2021/01/06 14:50:04;;;;;;;;;;;;;;;2.96;92.68;102325.47;4966168;28;20058;-91
2021/01/06 14:52:31;;;;;;;;;;;;;;;2.95;92.49;102324.63;4946033;29;19919;-93
2021/01/06 14:55:15;;;;;;;;;;;;;;;2.94;92.57;102324.69;4945139;29;20009;-92
2021/01/06 14:57:41;;;;;;;;;;;;;;;2.93;92.68;102323.00;4947664;28;19941;-91
2021/01/06 15:00:06;;;;;;;;;;;;;;;2.93;92.55;102328.16;4944798;28;20017;-93
2021/01/06 15:02:34;;;;;;;;;;;;;;;2.91;92.71;102335.16;4945312;29;20060;-91
2021/01/06 15:05:28;;;;;;;;;;;;;;;2.87;92.67;102329.22;4947145;29;19918;-92
2021/01/06 15:08:12;;;;;;;;;;;;;;;2.85;92.70;102336.22;4908411;29;20414;-91
2021/01/06 15:10:39;;;;;;;;;;;;;;;2.83;92.59;102331.97;4909894;29;19923;-91
2021/01/06 15:13:24;;;;;;;;;;;;;;;2.81;92.70;102334.59;4910765;29;20005;-92
2021/01/06 15:15:51;;;;;;;;;;;;;;;2.82;92.79;102332.84;4907846;29;19926;-92
2021/01/06 15:18:21;;;;;;;;;;;;;;;2.81;92.69;102325.97;4896376;29;19957;-93
2021/01/06 15:20:53;;;;;;;;;;;;;;;2.80;92.79;102327.72;4906928;29;19919;-91
2021/01/06 15:23:19;;;;;;;;;;;;;;;2.79;92.69;102327.78;4906680;29;19919;-93
2021/01/06 15:25:45;;;;;;;;;;;;;;;2.78;92.73;102323.50;4906506;29;20006;-91
2021/01/06 15:28:21;;;;;;;;;;;;;;;2.79;92.81;102331.22;4908547;29;19919;-91
2021/01/06 15:31:26;;;;;;;;;;;;;;;2.77;92.96;102338.19;4914388;29;19919;-89
2021/01/06 15:34:34;;;;;;;;;;;;;;;2.78;92.94;102329.53;5152397;23;19993;-89
2021/01/06 15:37:05;;;;;;;;;;;;;;;2.78;92.87;102333.88;4950413;29;19927;-89
2021/01/06 15:39:37;;;;;;;;;;;;;;;2.79;92.81;102332.97;5131199;23;19935;-90
2021/01/06 15:42:09;;;;;;;;;;;;;;;2.76;92.81;102331.31;4968170;29;19929;-91
2021/01/06 15:44:42;;;;;;;;;;;;;;;2.74;92.82;102333.13;4967451;29;19989;-91
2021/01/06 15:47:15;;;;;;;;;;;;;;;2.72;92.98;102334.06;4966903;29;19922;-89
2021/01/06 15:52:32;;;;;;;;;;;;;;;2.71;92.87;102330.63;4981909;23;19930;-90
2021/01/06 15:55:16;;;;;;;;;;;;;;;2.71;93.00;102335.81;4975312;28;19910;-89
2021/01/06 16:00:34;;;;;;;;;;;;;;;2.69;92.97;102325.50;4967579;29;19927;-90
2021/01/06 16:03:01;;;;;;;;;;;;;;;2.68;92.97;102330.72;4952031;29;19930;-90
2021/01/06 16:08:09;;;;;;;;;;;;;;;2.70;92.92;102331.53;5023764;23;19930;-90
2021/01/06 16:10:36;;;;;;;;;;;;;;;2.69;92.95;102329.84;4981525;23;20394;-91
2021/01/06 16:13:11;;;;;;;;;;;;;;;2.68;92.93;102336.78;4952090;29;19969;-89
2021/01/06 16:15:38;;;;;;;;;;;;;;;2.68;93.08;102330.72;4950276;29;19976;-92
2021/01/06 16:18:17;;;;;;;;;;;;;;;2.66;93.03;102330.75;4951490;29;19918;-89
2021/01/06 16:20:43;;;;;;;;;;;;;;;2.65;93.10;102330.81;4945840;23;19922;-88
2021/01/06 16:23:38;;;;;;;;;;;;;;;2.65;93.16;102328.22;4972954;28;19985;-90
2021/01/06 16:26:24;;;;;;;;;;;;;;;2.59;92.90;102328.44;4970995;28;19925;-90
2021/01/06 16:28:50;;;;;;;;;;;;;;;2.58;92.92;102334.50;4979153;28;19924;-89
2021/01/06 16:31:28;;;;;;;;;;;;;;;2.55;93.02;102327.69;4963844;28;19922;-91
2021/01/06 16:33:54;;;;;;;;;;;;;;;2.54;93.21;102327.75;4982909;28;19906;-92
2021/01/06 16:36:21;;;;;;;;;;;;;;;2.53;93.02;102332.09;4963772;28;20028;-91
2021/01/06 16:38:47;;;;;;;;;;;;;;;2.50;93.19;102334.75;4975311;28;19918;-90
2021/01/06 16:41:21;;;;;;;;;;;;;;;2.48;93.30;102331.34;4973427;28;19998;-89
2021/01/06 16:43:48;;;;;;;;;;;;;;;2.49;93.30;102332.22;4973476;28;19924;-90
2021/01/06 16:46:22;;;;;;;;;;;;;;;2.45;93.41;102333.22;4981210;28;19918;-91
2021/01/06 16:48:59;;;;;;;;;;;;;;;2.44;93.32;102334.09;4972581;28;19914;-91
2021/01/06 16:52:09;;;;;;;;;;;;;;;2.38;93.57;102333.41;5007588;23;20337;-91
2021/01/06 16:54:36;;;;;;;;;;;;;;;2.34;93.30;102336.97;4952271;29;20373;-90
2021/01/06 16:57:24;;;;;;;;;;;;;;;2.30;93.38;102330.19;5012004;23;19989;-90
2021/01/06 16:59:50;;;;;;;;;;;;;;;2.26;93.28;102331.19;4971934;28;19928;-89
2021/01/06 17:02:20;;;;;;;;;;;;;;;2.23;93.37;102326.13;4970786;28;19918;-89
2021/01/06 17:04:46;;;;;;;;;;;;;;;2.20;93.45;102326.19;4970909;28;19953;-89
2021/01/06 17:07:33;;;;;;;;;;;;;;;2.16;93.41;102322.00;4969486;28;19925;-89
2021/01/06 17:10:04;;;;;;;;;;;;;;;2.12;93.70;102322.16;4954165;28;19922;-88
2021/01/06 17:12:44;;;;;;;;;;;;;;;2.07;93.25;102325.72;4952118;23;19927;-87
2021/01/06 17:15:39;;;;;;;;;;;;;;;2.04;93.47;102328.38;4955377;29;19918;-92
2021/01/06 17:18:33;;;;;;;;;;;;;;;2.01;93.26;102322.47;4950926;29;19921;-92
2021/01/06 17:21:03;;;;;;;;;;;;;;;1.97;93.36;102328.63;4932568;28;19922;-92
2021/01/06 17:23:55;;;;;;;;;;;;;;;1.95;93.31;102325.25;5045957;23;19927;-90
2021/01/06 17:26:24;;;;;;;;;;;;;;;1.90;93.50;102322.81;4946889;29;19962;-91
2021/01/06 17:29:04;;;;;;;;;;;;;;;1.88;93.39;102323.72;4943626;29;19978;-91
2021/01/06 17:31:29;;;;;;;;;;;;;;;1.86;93.55;102331.53;4940114;29;19925;-93
2021/01/06 17:34:00;;;;;;;;;;;;;;;1.88;93.34;102326.31;4921952;29;20290;-94
2021/01/06 17:36:26;;;;;;;;;;;;;;;1.90;93.56;102327.13;4906451;29;19919;-93
2021/01/06 17:38:52;;;;;;;;;;;;;;;1.92;93.54;102321.00;4918661;29;19920;-93
2021/01/06 17:41:20;;;;;;;;;;;;;;;1.95;93.55;102322.66;4923110;29;19927;-91
2021/01/06 17:43:46;;;;;;;;;;;;;;;1.97;93.40;102316.53;4926848;29;19938;-94
2021/01/06 17:46:17;;;;;;;;;;;;;;;1.99;93.60;102326.84;4928601;29;20259;-93
2021/01/06 17:48:46;;;;;;;;;;;;;;;2.01;93.63;102328.47;4930004;29;19919;-91
2021/01/06 17:51:16;;;;;;;;;;;;;;;2.04;93.48;102324.94;4929001;29;19919;-92
2021/01/06 17:53:44;;;;;;;;;;;;;;;2.08;93.49;102324.00;4927334;29;19946;-94
2021/01/06 17:56:10;;;;;;;;;;;;;;;2.08;93.50;102322.25;5636087;23;21181;-93
2021/01/06 17:58:52;;;;;;;;;;;;;;;2.10;93.41;102328.22;4936132;29;19961;-90
2021/01/06 18:04:07;;;;;;;;;;;;;;;2.17;93.49;102331.47;4992875;23;20022;-93
2021/01/06 18:06:36;;;;;;;;;;;;;;;2.21;93.52;102332.22;4920592;29;19946;-93
2021/01/06 18:09:15;;;;;;;;;;;;;;;2.23;93.45;102327.84;4952030;29;19919;-93
2021/01/06 18:11:45;;;;;;;;;;;;;;;2.25;93.80;102328.66;4946508;28;20013;-93
2021/01/06 18:14:25;;;;;;;;;;;;;;;2.28;93.61;102324.22;4929968;29;19927;-92
2021/01/06 18:17:00;;;;;;;;;;;;;;;2.29;93.60;102331.09;4952820;29;20008;-93
2021/01/06 18:19:44;;;;;;;;;;;;;;;2.30;93.52;102325.03;4988957;23;19919;-92
2021/01/06 18:22:13;;;;;;;;;;;;;;;2.28;93.51;102324.22;4996065;23;19914;-93
2021/01/06 18:25:18;;;;;;;;;;;;;;;2.30;93.50;102327.59;4982616;23;19934;-91
2021/01/06 18:27:44;;;;;;;;;;;;;;;2.29;93.57;102328.50;4915630;28;19982;-96
2021/01/06 18:42:49;;;;;;;;;;;;;;;2.38;93.47;102337.75;5383619;23;19932;-96
2021/01/06 18:45:21;;;;;;;;;;;;;;;2.39;93.60;102331.66;4951147;28;19927;-94
2021/01/06 18:51:00;;;;;;;;;;;;;;;2.40;93.40;102331.63;5359354;23;19998;-92
2021/01/06 18:54:10;;;;;;;;;;;;;;;2.42;93.49;102336.75;4948666;28;19910;-94
2021/01/06 18:57:21;;;;;;;;;;;;;;;2.39;93.62;102329.94;4954441;28;19910;-94
2021/01/06 19:03:00;;;;;;;;;;;;;;;2.40;93.51;102331.63;4945441;29;20445;-93
2021/01/06 19:05:29;;;;;;;;;;;;;;;2.39;93.56;102324.75;4971013;29;19919;-94
2021/01/06 19:08:37;;;;;;;;;;;;;;;2.40;93.49;102333.34;5076110;23;19990;-92
2021/01/06 19:14:11;;;;;;;;;;;;;;;2.42;93.46;102323.78;5104920;23;19966;-91
2021/01/06 19:20:09;;;;;;;;;;;;;;;2.39;93.35;102321.31;5163060;23;19941;-92
2021/01/06 19:23:34;;;;;;;;;;;;;;;2.37;93.40;102323.94;5070684;23;19934;-92
2021/01/06 19:26:19;;;;;;;;;;;;;;;2.36;93.21;102319.63;4938836;29;19923;-93
2021/01/06 19:29:01;;;;;;;;;;;;;;;2.37;93.20;102326.53;4919353;29;19959;-94
2021/01/06 19:31:28;;;;;;;;;;;;;;;2.36;93.23;102318.78;5030571;23;19927;-93
2021/01/06 19:34:11;;;;;;;;;;;;;;;2.35;93.19;102323.13;4971649;29;20034;-92
2021/01/06 19:42:23;;;;;;;;;;;;;;;2.31;93.16;102324.13;5027608;23;20285;-94
2021/01/06 19:49:06;;;;;;;;;;;;;;;2.27;93.09;102321.69;4882384;29;19945;-93
2021/01/06 20:12:45;;;;;;;;;;;;;;;2.17;93.21;102294.38;5991696;23;19931;31
2021/01/06 20:33:24;;;;;;;;;;;;;;;1.83;93.15;102310.91;4975502;29;19941;-94
2021/01/06 20:39:20;;;;;;;;;;;;;;;1.65;93.13;102303.69;5387085;23;19933;-92
2021/01/06 20:42:13;;;;;;;;;;;;;;;1.56;92.86;102309.13;4951723;29;19969;-94
2021/01/06 20:50:29;;;;;;;;;;;;;;;1.34;93.07;102303.72;4950734;29;19926;-93
2021/01/06 21:01:10;;;;;;;;;;;;;;;1.14;93.04;102297.34;5635887;23;19926;-92
2021/01/06 21:32:32;;;;;;;;;;;;;;;0.91;93.23;102294.50;5006719;23;19938;-93
2021/01/06 21:35:23;;;;;;;;;;;;;;;0.89;92.92;102286.78;4916803;29;19992;-93
2021/01/06 21:38:09;;;;;;;;;;;;;;;0.87;93.05;102282.56;4940499;29;19938;-91